createdAt,value
2019-04-11T00:01:53.081Z,5.40
2019-04-11T00:04:28.185Z,5.35
2019-04-11T00:07:03.753Z,5.28
2019-04-11T00:09:32.629Z,5.70
2019-04-11T00:12:04.162Z,5.87
2019-04-11T00:14:36.146Z,5.30
2019-04-11T00:17:10.583Z,5.70
2019-04-11T00:19:41.122Z,5.50
2019-04-11T00:22:17.385Z,5.85
2019-04-11T00:24:47.208Z,5.60
2019-04-11T00:27:21.821Z,5.42
2019-04-11T00:29:59.708Z,5.83
2019-04-11T00:32:31.462Z,6.00
2019-04-11T00:35:01.670Z,5.75
2019-04-11T00:37:43.746Z,6.20
2019-04-11T00:40:19.982Z,5.92
2019-04-11T00:42:50.515Z,5.95
2019-04-11T00:45:24.489Z,5.70
2019-04-11T00:47:55.854Z,5.95
2019-04-11T00:50:32.536Z,6.08
2019-04-11T00:53:03.479Z,5.97
2019-04-11T00:55:35.643Z,5.90
2019-04-11T00:58:08.168Z,5.90
2019-04-11T01:00:42.991Z,6.05
2019-04-11T01:03:15.869Z,6.42
2019-04-11T01:05:49.802Z,6.40
2019-04-11T01:08:19.815Z,6.30
2019-04-11T01:10:51.786Z,6.47
2019-04-11T01:13:23.859Z,6.80
2019-04-11T01:16:05.029Z,6.47
2019-04-11T01:18:36.104Z,6.42
2019-04-11T01:21:08.007Z,6.40
2019-04-11T01:23:39.462Z,6.60
2019-04-11T01:26:17.602Z,6.17
2019-04-11T01:28:52.085Z,6.23
2019-04-11T01:31:35.799Z,6.20
2019-04-11T01:34:10.714Z,6.55
2019-04-11T01:36:42.932Z,6.65
2019-04-11T01:39:30.690Z,6.47
2019-04-11T01:42:04.210Z,6.30
2019-04-11T01:44:34.682Z,6.37
2019-04-11T01:47:10.771Z,6.70
2019-04-11T01:49:38.952Z,7.07
2019-04-11T01:52:09.857Z,6.37
2019-04-11T01:54:40.251Z,6.70
2019-04-11T01:57:29.528Z,7.27
2019-04-11T01:59:59.695Z,7.03
2019-04-11T02:02:38.854Z,7.20
2019-04-11T02:05:14.050Z,7.00
2019-04-11T02:07:49.196Z,7.00
2019-04-11T02:10:24.460Z,7.37
2019-04-11T02:12:56.926Z,7.12
2019-04-11T02:15:28.278Z,7.00
2019-04-11T02:17:59.878Z,7.03
2019-04-11T02:20:31.234Z,6.90
2019-04-11T02:23:15.551Z,7.10
2019-04-11T02:25:43.496Z,7.10
2019-04-11T02:28:16.908Z,7.20
2019-04-11T02:30:53.622Z,7.05
2019-04-11T02:33:24.255Z,6.72
2019-04-11T02:35:56.709Z,7.30
2019-04-11T02:38:28.306Z,6.62
2019-04-11T02:41:03.688Z,7.25
2019-04-11T02:43:38.235Z,6.62
2019-04-11T02:46:17.269Z,6.95
2019-04-11T02:48:40.685Z,6.83
2019-04-11T02:51:15.167Z,7.03
2019-04-11T02:53:45.232Z,6.70
2019-04-11T02:56:25.729Z,7.00
2019-04-11T02:58:50.321Z,6.65
2019-04-11T03:01:21.990Z,6.67
2019-04-11T03:03:54.015Z,6.47
2019-04-11T03:09:17.531Z,6.83
2019-04-11T03:11:47.151Z,6.40
2019-04-11T03:14:18.638Z,6.60
2019-04-11T03:17:03.672Z,6.72
2019-04-11T03:19:42.346Z,6.72
2019-04-11T03:22:01.553Z,7.17
2019-04-11T03:24:43.557Z,6.92
2019-04-11T03:27:15.504Z,6.78
2019-04-11T03:29:56.524Z,6.70
2019-04-11T03:38:17.378Z,6.78
2019-04-11T03:40:43.833Z,6.70
2019-04-11T03:43:16.492Z,6.40
2019-04-11T03:45:59.629Z,6.58
2019-04-11T03:48:21.849Z,6.58
2019-04-11T03:50:40.346Z,6.30
2019-04-11T03:53:17.179Z,6.20
2019-04-11T03:55:51.667Z,6.27
2019-04-11T03:58:29.439Z,6.22
2019-04-11T04:01:03.411Z,6.33
2019-04-11T04:03:36.505Z,6.57
2019-04-11T04:06:09.009Z,6.60
2019-04-11T04:09:06.490Z,6.22
2019-04-11T04:11:40.873Z,6.40
2019-04-11T04:14:17.714Z,7.00
2019-04-11T04:17:10.101Z,6.30
2019-04-11T04:19:41.230Z,6.08
2019-04-11T04:22:24.576Z,6.50
2019-04-11T04:25:01.015Z,6.73
2019-04-11T04:27:32.577Z,6.53
2019-04-11T04:30:05.376Z,6.50
2019-04-11T04:32:38.652Z,6.53
2019-04-11T04:35:21.054Z,7.05
2019-04-11T04:37:52.453Z,6.55
2019-04-11T04:40:46.314Z,6.80
2019-04-11T04:43:07.367Z,6.30
2019-04-11T04:45:57.906Z,6.33
2019-04-11T04:48:17.899Z,6.70
2019-04-11T04:50:48.905Z,6.75
2019-04-11T04:53:23.471Z,6.80
2019-04-11T04:55:57.445Z,6.65
2019-04-11T04:58:29.302Z,6.78
2019-04-11T05:01:07.823Z,6.90
2019-04-11T05:03:44.693Z,7.03
2019-04-11T05:06:14.179Z,7.03
2019-04-11T05:08:49.271Z,6.78
2019-04-11T05:11:23.140Z,7.30
2019-04-11T05:14:02.835Z,7.28
2019-04-11T05:16:35.751Z,7.10
2019-04-11T05:19:09.229Z,6.67
2019-04-11T05:21:43.699Z,7.33
2019-04-11T05:24:15.074Z,7.03
2019-04-11T05:26:55.809Z,7.22
2019-04-11T05:29:39.700Z,7.50
2019-04-11T05:32:16.756Z,7.33
2019-04-11T05:34:51.168Z,7.35
2019-04-11T05:37:27.711Z,7.33
2019-04-11T05:40:07.250Z,7.57
2019-04-11T05:42:39.558Z,7.53
2019-04-11T05:45:18.270Z,7.95
2019-04-11T05:47:56.735Z,7.75
2019-04-11T05:50:24.239Z,7.87
2019-04-11T05:52:54.582Z,8.13
2019-04-11T05:55:30.142Z,7.80
2019-04-11T05:58:28.915Z,7.72
2019-04-11T06:00:44.393Z,8.33
2019-04-11T06:03:22.241Z,7.85
2019-04-11T06:06:04.817Z,8.48
2019-04-11T06:08:42.325Z,7.90
2019-04-11T06:11:22.158Z,8.30
2019-04-11T06:13:56.518Z,8.20
2019-04-11T06:16:48.838Z,7.95
2019-04-11T06:19:30.735Z,11.22
2019-04-11T06:22:04.579Z,9.95
2019-04-11T06:24:52.286Z,9.90
2019-04-11T06:27:28.664Z,8.47
2019-04-11T06:30:05.417Z,9.00
2019-04-11T06:32:47.840Z,8.60
2019-04-11T06:35:37.859Z,8.35
2019-04-11T06:38:28.758Z,8.38
2019-04-11T06:41:12.663Z,8.58
2019-04-11T06:44:00.467Z,9.08
2019-04-11T06:46:54.408Z,8.20
2019-04-11T06:49:26.941Z,8.73
2019-04-11T06:52:00.191Z,8.93
2019-04-11T06:54:39.148Z,9.48
2019-04-11T06:57:10.230Z,9.30
2019-04-11T06:59:44.801Z,9.10
2019-04-11T07:02:25.098Z,9.20
2019-04-11T07:04:58.142Z,8.80
2019-04-11T07:07:36.118Z,8.90
2019-04-11T07:10:22.282Z,8.15
2019-04-11T07:12:49.381Z,8.20
2019-04-11T07:15:29.387Z,8.33
2019-04-11T07:18:22.540Z,8.40
2019-04-11T07:20:54.275Z,8.08
2019-04-11T07:23:51.685Z,8.68
2019-04-11T07:26:35.130Z,8.53
2019-04-11T07:29:29.219Z,8.23
2019-04-11T07:32:09.744Z,7.60
2019-04-11T07:34:52.688Z,7.62
2019-04-11T07:37:36.438Z,7.75
2019-04-11T07:41:33.935Z,7.70
2019-04-11T07:43:05.218Z,7.60
2019-04-11T07:45:32.233Z,7.60
2019-04-11T07:48:17.196Z,7.70
2019-04-11T07:50:54.159Z,7.42
2019-04-11T07:53:29.119Z,7.53
2019-04-11T07:56:21.443Z,6.97
2019-04-11T07:58:54.342Z,7.35
2019-04-11T08:01:29.686Z,6.90
2019-04-11T08:04:19.390Z,7.08
2019-04-11T08:07:06.540Z,7.08
2019-04-11T08:09:50.848Z,6.97
2019-04-11T08:12:50.266Z,7.10
2019-04-11T08:15:27.106Z,6.40
2019-04-11T08:18:12.819Z,6.22
2019-04-11T08:21:08.317Z,6.30
2019-04-11T08:23:40.802Z,6.22
2019-04-11T08:26:24.582Z,5.83
2019-04-11T08:29:04.198Z,6.47
2019-04-11T08:31:36.120Z,6.13
2019-04-11T08:34:13.270Z,6.00
2019-04-11T08:37:00.215Z,5.70
2019-04-11T08:39:37.296Z,5.85
2019-04-11T08:42:27.433Z,6.10
2019-04-11T08:45:20.057Z,5.90
2019-04-11T08:47:58.805Z,6.08
2019-04-11T08:50:47.505Z,5.90
2019-04-11T08:53:24.664Z,6.08
2019-04-11T08:56:01.924Z,6.62
2019-04-11T09:02:04.625Z,6.10
2019-04-11T09:05:03.291Z,6.58
2019-04-11T09:07:33.733Z,6.72
2019-04-11T09:10:24.598Z,6.15
2019-04-11T09:13:19.480Z,6.12
2019-04-11T09:16:07.950Z,6.50
2019-04-11T09:18:52.447Z,6.70
2019-04-11T09:21:44.772Z,6.05
2019-04-11T09:24:27.351Z,5.22
2019-04-11T09:27:30.965Z,5.92
2019-04-11T09:30:11.440Z,6.12
2019-04-11T09:33:09.001Z,6.03
2019-04-11T09:35:56.052Z,5.33
2019-04-11T09:38:32.804Z,4.60
2019-04-11T09:41:22.680Z,4.58
2019-04-11T09:43:58.352Z,4.87
2019-04-11T09:46:32.838Z,4.67
2019-04-11T09:49:27.093Z,4.65
2019-04-11T09:52:12.196Z,4.60
2019-04-11T09:54:50.603Z,4.70
2019-04-11T09:57:27.127Z,5.22
2019-04-11T10:00:22.925Z,5.17
2019-04-11T10:02:57.056Z,5.10
2019-04-11T10:05:45.334Z,4.85
2019-04-11T10:08:35.468Z,4.60
2019-04-11T10:11:13.626Z,4.50
2019-04-11T10:14:01.725Z,4.72
2019-04-11T10:16:37.252Z,4.85
2019-04-11T10:19:22.103Z,4.55
2019-04-11T10:22:09.006Z,4.85
2019-04-11T10:24:46.247Z,5.25
2019-04-11T10:27:41.706Z,4.70
2019-04-11T10:30:17.330Z,5.20
2019-04-11T10:33:06.754Z,5.45
2019-04-11T10:35:44.754Z,5.65
2019-04-11T10:38:20.341Z,4.83
2019-04-11T10:41:04.532Z,5.25
2019-04-11T10:43:45.432Z,5.03
2019-04-11T10:46:20.564Z,4.97
2019-04-11T10:48:57.439Z,5.10
2019-04-11T10:51:29.854Z,5.12
2019-04-11T10:54:02.854Z,5.35
2019-04-11T10:56:35.974Z,5.25
2019-04-11T10:59:13.253Z,5.03
2019-04-11T11:02:02.417Z,5.30
2019-04-11T11:04:38.775Z,5.60
2019-04-11T11:07:13.070Z,5.33
2019-04-11T11:10:01.145Z,5.28
2019-04-11T11:12:41.427Z,5.60
2019-04-11T11:15:20.881Z,5.50
2019-04-11T11:18:28.130Z,5.75
2019-04-11T11:20:53.985Z,5.58
2019-04-11T11:23:38.592Z,6.00
2019-04-11T11:26:12.725Z,5.30
2019-04-11T11:28:53.231Z,5.35
2019-04-11T11:31:49.137Z,5.00
2019-04-11T11:34:26.189Z,5.35
2019-04-11T11:37:20.757Z,5.53
2019-04-11T11:40:03.663Z,5.20
2019-04-11T11:42:50.496Z,5.33
2019-04-11T11:45:31.222Z,5.58
2019-04-11T11:48:27.818Z,5.20
2019-04-11T11:51:01.267Z,4.70
2019-04-11T11:53:49.062Z,5.78
2019-04-11T11:56:13.773Z,5.40
2019-04-11T11:58:51.896Z,5.33
2019-04-11T12:01:33.774Z,5.83
2019-04-11T12:04:23.942Z,5.87
2019-04-11T12:07:03.709Z,6.22
2019-04-11T12:09:44.702Z,5.95
2019-04-11T12:12:23.937Z,5.60
2019-04-11T12:15:05.121Z,5.70
2019-04-11T12:18:00.296Z,6.10
2019-04-11T12:20:33.198Z,6.15
2019-04-11T12:23:24.198Z,6.05
2019-04-11T12:25:55.512Z,6.08
2019-04-11T12:28:25.798Z,6.77
2019-04-11T12:31:17.546Z,6.58
2019-04-11T12:33:52.192Z,6.47
2019-04-11T12:36:30.528Z,6.58
2019-04-11T12:39:24.549Z,6.42
2019-04-11T12:41:51.519Z,6.25
2019-04-11T12:44:34.898Z,6.30
2019-04-11T12:47:23.864Z,6.40
2019-04-11T12:49:55.971Z,6.15
2019-04-11T12:52:45.235Z,6.87
2019-04-11T12:55:16.426Z,6.05
2019-04-11T12:57:49.541Z,6.20
2019-04-11T13:00:28.043Z,6.28
2019-04-11T13:03:12.857Z,6.37
2019-04-11T13:05:49.392Z,6.30
2019-04-11T13:08:39.847Z,6.20
2019-04-11T13:11:18.589Z,5.90
2019-04-11T13:14:00.971Z,5.90
2019-04-11T13:16:32.125Z,5.83
2019-04-11T13:19:23.254Z,6.28
2019-04-11T13:22:11.161Z,6.20
2019-04-11T13:25:04.623Z,6.20
2019-04-11T13:27:40.406Z,6.05
2019-04-11T13:30:18.681Z,6.33
2019-04-11T13:32:56.399Z,6.83
2019-04-11T13:35:47.005Z,6.33
2019-04-11T13:38:20.678Z,6.47
2019-04-11T13:41:20.021Z,6.63
2019-04-11T13:43:59.666Z,6.65
2019-04-11T13:46:47.849Z,6.35
2019-04-11T13:49:17.516Z,6.90
2019-04-11T13:51:51.034Z,6.60
2019-04-11T13:54:41.839Z,6.55
2019-04-11T13:57:34.442Z,6.47
2019-04-11T14:00:37.326Z,6.50
2019-04-11T14:03:24.316Z,6.67
2019-04-11T14:05:49.212Z,6.45
2019-04-11T14:08:39.171Z,6.55
2019-04-11T14:11:22.263Z,6.22
2019-04-11T14:14:03.026Z,6.05
2019-04-11T14:16:46.218Z,6.12
2019-04-11T14:19:24.467Z,6.50
2019-04-11T14:22:02.658Z,6.12
2019-04-11T14:24:44.862Z,6.00
2019-04-11T14:27:33.418Z,6.60
2019-04-11T14:30:09.474Z,6.08
2019-04-11T14:32:45.132Z,6.22
2019-04-11T14:35:28.943Z,6.22
2019-04-11T14:38:06.381Z,5.83
2019-04-11T14:40:47.296Z,5.95
2019-04-11T14:43:32.169Z,6.20
2019-04-11T14:46:14.180Z,6.30
2019-04-11T14:48:46.389Z,6.60
2019-04-11T14:51:29.867Z,6.30
2019-04-11T14:54:12.145Z,6.15
2019-04-11T14:56:55.101Z,6.00
2019-04-11T14:59:28.854Z,6.90
2019-04-11T15:02:19.328Z,6.53
2019-04-11T15:04:56.554Z,6.80
2019-04-11T15:07:30.716Z,6.40
2019-04-11T15:10:20.220Z,6.27
2019-04-11T15:13:00.761Z,6.30
2019-04-11T15:15:47.937Z,5.60
2019-04-11T15:18:20.083Z,6.33
2019-04-11T15:21:06.576Z,6.17
2019-04-11T15:23:45.394Z,6.37
2019-04-11T15:26:38.902Z,6.40
2019-04-11T15:29:22.747Z,6.40
2019-04-11T15:32:06.919Z,6.35
2019-04-11T15:34:57.801Z,6.40
2019-04-11T15:37:31.690Z,6.30
2019-04-11T15:40:08.446Z,6.30
2019-04-11T15:42:54.779Z,5.97
2019-04-11T15:45:46.486Z,5.92
2019-04-11T15:48:34.697Z,5.72
2019-04-11T15:51:20.312Z,5.97
2019-04-11T15:54:00.185Z,5.53
2019-04-11T15:56:54.313Z,5.90
2019-04-11T15:59:45.212Z,6.00
2019-04-11T16:02:27.153Z,5.70
2019-04-11T16:05:05.669Z,6.03
2019-04-11T16:07:49.025Z,5.50
2019-04-11T16:10:20.044Z,5.15
2019-04-11T16:12:57.899Z,5.40
2019-04-11T16:15:42.402Z,5.80
2019-04-11T16:18:36.305Z,5.35
2019-04-11T16:21:25.656Z,5.00
2019-04-11T16:23:56.936Z,5.12
2019-04-11T16:26:30.277Z,5.15
2019-04-11T16:29:03.751Z,5.05
2019-04-11T16:31:53.358Z,5.10
2019-04-11T16:34:54.333Z,5.03
2019-04-11T16:37:24.706Z,5.20
2019-04-11T16:40:15.117Z,5.10
2019-04-11T16:42:49.316Z,5.08
2019-04-11T16:45:33.868Z,5.40
2019-04-11T16:48:06.216Z,5.50
2019-04-11T16:50:38.261Z,5.37
2019-04-11T16:53:13.220Z,4.97
2019-04-11T16:55:46.146Z,5.15
2019-04-11T16:58:19.636Z,4.47
2019-04-11T17:00:56.832Z,4.57
2019-04-11T17:03:34.057Z,4.55
2019-04-11T17:06:27.343Z,4.33
2019-04-11T17:09:00.729Z,4.40
2019-04-11T17:11:39.300Z,4.53
2019-04-11T17:14:08.979Z,4.30
2019-04-11T17:16:40.467Z,4.20
2019-04-11T17:19:14.905Z,4.20
2019-04-11T17:21:48.083Z,3.90
2019-04-11T17:24:19.262Z,4.00
2019-04-11T17:26:52.854Z,4.10
2019-04-11T17:29:25.974Z,3.80
2019-04-11T17:31:59.678Z,4.10
2019-04-11T17:34:32.130Z,4.10
2019-04-11T17:37:06.709Z,3.90
2019-04-11T17:39:41.115Z,3.98
2019-04-11T17:42:16.513Z,3.80
2019-04-11T17:44:48.082Z,3.77
2019-04-11T17:47:27.568Z,3.83
2019-04-11T17:49:59.743Z,3.90
2019-04-11T17:52:43.090Z,3.70
2019-04-11T17:55:15.619Z,4.00
2019-04-11T17:57:51.388Z,4.00
2019-04-11T18:00:24.005Z,3.75
2019-04-11T18:02:59.208Z,4.08
2019-04-11T18:05:37.761Z,3.67
2019-04-11T18:08:11.469Z,3.98
2019-04-11T18:10:45.152Z,4.12
2019-04-11T18:13:16.593Z,4.00
2019-04-11T18:15:52.911Z,4.50
2019-04-11T18:18:26.371Z,4.35
2019-04-11T18:23:53.439Z,4.33
2019-04-11T18:26:28.073Z,4.30
2019-04-11T18:29:07.966Z,4.40
2019-04-11T18:31:41.375Z,4.00
2019-04-11T18:34:13.316Z,4.42
2019-04-11T18:36:47.368Z,4.15
2019-04-11T18:39:29.299Z,4.20
2019-04-11T18:42:04.060Z,4.30
2019-04-11T18:44:39.297Z,3.90
2019-04-11T18:47:32.452Z,3.95
2019-04-11T18:50:11.298Z,3.67
2019-04-11T18:52:59.587Z,3.50
2019-04-11T18:55:44.343Z,3.47
2019-04-11T18:58:08.832Z,3.10
2019-04-11T19:00:45.615Z,3.42
2019-04-11T19:03:18.040Z,3.40
2019-04-11T19:05:55.645Z,3.40
2019-04-11T19:08:37.350Z,3.00
2019-04-11T19:11:01.210Z,3.15
2019-04-11T19:13:38.448Z,3.20
2019-04-11T19:16:16.128Z,3.40
2019-04-11T19:19:01.796Z,3.40
2019-04-11T19:21:34.468Z,2.92
2019-04-11T19:24:19.271Z,3.00
2019-04-11T19:26:52.135Z,3.30
2019-04-11T19:29:31.617Z,3.02
2019-04-11T19:32:07.065Z,2.83
2019-04-11T19:37:55.963Z,3.07
2019-04-11T19:40:27.158Z,2.80
2019-04-11T19:43:11.109Z,2.90
2019-04-11T19:45:55.167Z,2.70
2019-04-11T19:48:17.847Z,2.85
2019-04-11T19:50:53.684Z,2.87
2019-04-11T19:53:46.135Z,2.90
2019-04-11T19:56:18.655Z,2.90
2019-04-11T19:58:57.775Z,3.00
2019-04-11T20:01:50.789Z,2.77
2019-04-11T20:04:24.446Z,2.75
2019-04-11T20:06:57.466Z,2.85
2019-04-11T20:09:32.172Z,2.80
2019-04-11T20:12:04.773Z,2.72
2019-04-11T20:14:44.557Z,2.47
2019-04-11T20:17:44.065Z,2.70
2019-04-11T20:20:10.569Z,2.90
2019-04-11T20:22:57.924Z,2.70
2019-04-11T20:25:21.858Z,2.95
2019-04-11T20:27:54.248Z,2.70
2019-04-11T20:30:29.085Z,2.45
2019-04-11T20:33:05.810Z,2.70
2019-04-11T20:35:40.675Z,3.00
2019-04-11T20:38:11.067Z,2.90
2019-04-11T20:40:44.742Z,2.55
2019-04-11T20:43:18.821Z,2.97
2019-04-11T20:45:53.333Z,2.83
2019-04-11T20:48:26.619Z,3.02
2019-04-11T20:51:01.467Z,2.70
2019-04-11T20:53:40.455Z,2.52
2019-04-11T20:56:23.950Z,2.60
2019-04-11T20:58:51.218Z,2.30
2019-04-11T21:01:36.882Z,2.37
2019-04-11T21:04:04.668Z,2.20
2019-04-11T21:06:51.040Z,2.05
2019-04-11T21:09:09.734Z,1.98
2019-04-11T21:11:46.052Z,2.20
2019-04-11T21:14:16.837Z,2.08
2019-04-11T21:16:50.049Z,2.00
2019-04-11T21:19:32.419Z,1.90
2019-04-11T21:22:03.516Z,2.20
2019-04-11T21:24:37.820Z,1.98
2019-04-11T21:27:10.736Z,1.80
2019-04-11T21:29:43.428Z,1.80
2019-04-11T21:32:16.669Z,1.80
2019-04-11T21:35:01.772Z,1.90
2019-04-11T21:37:36.817Z,1.80
2019-04-11T21:40:11.711Z,1.90
2019-04-11T21:42:43.723Z,2.20
2019-04-11T21:45:17.308Z,1.72
2019-04-11T21:47:49.476Z,1.87
2019-04-11T21:50:25.845Z,1.60
2019-04-11T21:52:57.791Z,1.80
2019-04-11T21:55:30.235Z,1.90
2019-04-11T21:58:01.706Z,1.92
2019-04-11T22:00:40.572Z,1.80
2019-04-11T22:03:15.400Z,1.75
2019-04-11T22:05:50.807Z,1.82
2019-04-11T22:08:23.248Z,1.87
2019-04-11T22:11:03.074Z,1.72
2019-04-11T22:13:30.785Z,1.90
2019-04-11T22:16:05.338Z,1.70
2019-04-11T22:18:41.569Z,1.90
2019-04-11T22:21:12.956Z,1.90
2019-04-11T22:23:48.848Z,1.90
2019-04-11T22:26:22.089Z,1.60
2019-04-11T22:28:55.216Z,1.80
2019-04-11T22:31:30.164Z,1.72
2019-04-11T22:34:03.006Z,1.80
2019-04-11T22:36:39.402Z,2.00
2019-04-11T22:39:11.832Z,1.90
2019-04-11T22:41:45.219Z,1.93
2019-04-11T22:44:16.058Z,1.83
2019-04-11T22:46:46.205Z,1.90
2019-04-11T22:49:20.992Z,1.90
2019-04-11T22:51:51.558Z,2.00
2019-04-11T22:54:23.391Z,2.10
2019-04-11T22:57:01.537Z,2.10
2019-04-11T22:59:28.503Z,2.02
2019-04-11T23:01:59.649Z,1.90
2019-04-11T23:05:38.588Z,2.22
2019-04-11T23:07:10.830Z,2.00
2019-04-11T23:09:42.429Z,2.02
2019-04-11T23:12:15.847Z,2.15
2019-04-11T23:14:47.997Z,2.10
2019-04-11T23:17:18.512Z,2.17
2019-04-11T23:19:52.834Z,2.33
2019-04-11T23:22:24.506Z,1.82
2019-04-11T23:24:59.012Z,2.17
2019-04-11T23:27:30.011Z,2.10
2019-04-11T23:30:06.430Z,2.30
2019-04-11T23:32:39.143Z,2.10
2019-04-11T23:35:11.066Z,2.10
2019-04-11T23:37:54.968Z,2.12
2019-04-11T23:40:29.591Z,2.00
2019-04-11T23:43:05.573Z,2.33
2019-04-11T23:45:39.175Z,2.20
2019-04-11T23:48:09.185Z,1.98
2019-04-11T23:50:41.124Z,2.20
2019-04-11T23:53:19.360Z,2.40
2019-04-11T23:55:51.738Z,2.27
2019-04-11T23:58:24.752Z,2.20
